Saturday, January 20, 2018, 3:05 PM GMT
Back to Local

CYOW, Ottawa Int'L. Ont.

Location: , , Canada Lat: 45.317
Local Time: 3:05 PM GMT (15:05 GMT) Lon: -75.667
Time Zone: GMT Elev: 380 ft

Show me the last for .
Show Coded

Time T Td Feel RH Dir Speed Gust Alt SLP Vis Weather Sky Remarks
2018-01-20 14:00 36 27 26 69 230° 16 - 29.61 29.63 10 OVC033 None
2018-01-20 13:00 36 27 28 69 220° 10 - 29.58 29.59 10 BKN040 OVC150 None
2018-01-20 12:00 36 25 24 64 220° 16 22 29.55 29.57 10 OVC150 None
2018-01-20 11:00 36 25 24 64 230° 15 24 29.53 29.55 10 FEW100 OVC150 Pressure rising rapidly
2018-01-20 10:00 36 25 23 64 220° 18 26 29.50 29.52 10 BKN120 OVC140 Pressure rising rapidly
2018-01-20 09:00 36 25 23 64 220° 16 26 29.48 29.50 10 BKN140 OVC160 None
2018-01-20 08:00 34 25 21 69 210° 15 24 29.49 29.51 10 BKN150 OVC160 None
2018-01-20 07:00 34 25 22 69 210° 16 22 29.53 29.55 10 BKN140 None
2018-01-20 06:00 32 27 24 80 180° 9 - 29.54 29.56 10 OVC110 None
2018-01-20 05:00 32 25 20 74 210° 12 20 29.58 29.59 10 -SN BKN068 OVC085 Pressure falling rapidly
2018-01-20 04:45 32 25 19 74 220° 16 23 29.59 29.61 10 -SN SCT062 OVC070 None
2018-01-20 04:00 32 23 20 68 200° 12 20 29.60 29.62 10 OVC070 None
2018-01-20 03:00 32 23 23 68 200° 13 - 29.64 29.66 10 SCT065 OVC086 Pressure falling rapidly
2018-01-20 02:00 30 23 21 74 200° 10 - 29.68 29.70 10 -SN FEW020 OVC110 None
2018-01-20 01:00 30 23 20 74 200° 14 - 29.72 29.75 10 FEW020 OVC110 None
2018-01-20 00:00 30 25 21 80 200° 10 - 29.74 29.76 10 BKN020 OVC080 None
2018-01-19 23:00 30 25 17 80 210° 15 22 29.76 29.78 10 SCT017 OVC037 None
2018-01-19 22:00 30 25 21 80 210° 10 - 29.77 29.79 7 SCT017 OVC038 None
2018-01-19 21:15 28 23 20 79 210° 8 - 29.77 29.79 7 BKN018 OVC038 None
2018-01-19 21:00 28 23 16 79 210° 9 17 29.77 29.80 7 BKN012 OVC038 None
2018-01-19 20:19 28 23 18 79 200° 12 - 29.79 29.81 7 OVC012 None
2018-01-19 20:00 28 23 20 79 190° 9 - 29.78 29.80 8 OVC015 None
2018-01-19 19:00 27 23 19 86 200° 7 - 29.80 29.82 8 OVC016 None
2018-01-19 18:00 27 21 17 79 220° 9 - 29.82 29.84 8 OVC016 None
2018-01-19 17:20 27 21 18 79 210° 8 - 29.82 29.85 8 BKN016 OVC035 Pressure falling rapidly
2018-01-19 17:00 27 21 19 79 210° 7 - 29.84 29.86 8 -SN BKN017 OVC033 None
2018-01-19 16:54 27 21 19 79 210° 7 - 29.84 29.86 8 -SN BKN017 OVC033 None
2018-01-19 16:00 25 19 16 79 220° 8 - 29.86 29.88 10 FEW013 OVC021 None
2018-01-19 15:52 25 19 18 79 210° 6 - 29.86 29.88 10 FEW013 OVC021 None
2018-01-19 15:19 25 19 17 79 210° 7 - 29.86 29.89 7 -SN OVC017 None

Support USWX by starting your Amazon purchase here.